sensor_id;sensor_type;location;lat;lon;timestamp;temperature;humidity
41471;DHT22;27211;51.220;5.308;2022-08-21T00:02:20;16.30;99.90
41471;DHT22;27211;51.220;5.308;2022-08-21T00:04:46;16.30;99.90
41471;DHT22;27211;51.220;5.308;2022-08-21T00:07:12;16.20;99.90
41471;DHT22;27211;51.220;5.308;2022-08-21T00:09:38;16.30;99.90
41471;DHT22;27211;51.220;5.308;2022-08-21T00:12:05;16.30;99.90
41471;DHT22;27211;51.220;5.308;2022-08-21T00:14:31;16.40;99.90
41471;DHT22;27211;51.220;5.308;2022-08-21T00:16:58;16.40;99.90
41471;DHT22;27211;51.220;5.308;2022-08-21T00:19:24;16.40;99.90
41471;DHT22;27211;51.220;5.308;2022-08-21T00:21:52;16.20;99.90
41471;DHT22;27211;51.220;5.308;2022-08-21T00:24:19;16.20;99.90
41471;DHT22;27211;51.220;5.308;2022-08-21T00:26:45;16.20;99.90
41471;DHT22;27211;51.220;5.308;2022-08-21T00:29:11;16.20;99.90
41471;DHT22;27211;51.220;5.308;2022-08-21T00:31:37;16.60;99.90
41471;DHT22;27211;51.220;5.308;2022-08-21T00:34:03;16.60;99.90
41471;DHT22;27211;51.220;5.308;2022-08-21T00:36:29;16.40;99.90
41471;DHT22;27211;51.220;5.308;2022-08-21T00:38:57;16.50;99.90
41471;DHT22;27211;51.220;5.308;2022-08-21T00:41:23;16.40;99.90
41471;DHT22;27211;51.220;5.308;2022-08-21T00:43:49;16.60;99.90
41471;DHT22;27211;51.220;5.308;2022-08-21T00:46:16;16.50;99.90
41471;DHT22;27211;51.220;5.308;2022-08-21T00:48:42;16.30;99.90
41471;DHT22;27211;51.220;5.308;2022-08-21T00:51:20;16.10;99.90
41471;DHT22;27211;51.220;5.308;2022-08-21T00:53:53;15.90;99.90
41471;DHT22;27211;51.220;5.308;2022-08-21T00:56:20;15.90;99.90
41471;DHT22;27211;51.220;5.308;2022-08-21T00:58:47;15.80;99.90
41471;DHT22;27211;51.220;5.308;2022-08-21T01:01:14;15.80;99.90
41471;DHT22;27211;51.220;5.308;2022-08-21T01:03:40;15.60;99.90
41471;DHT22;27211;51.220;5.308;2022-08-21T01:06:08;15.60;99.90
41471;DHT22;27211;51.220;5.308;2022-08-21T01:08:34;15.70;99.90
41471;DHT22;27211;51.220;5.308;2022-08-21T08:57:29;27.40;99.10
41471;DHT22;27211;51.220;5.308;2022-08-21T08:59:59;27.90;98.30
41471;DHT22;27211;51.220;5.308;2022-08-21T09:02:25;29.00;97.00
41471;DHT22;27211;51.220;5.308;2022-08-21T09:04:53;29.70;95.50
41471;DHT22;27211;51.220;5.308;2022-08-21T09:10:23;30.30;93.80
41471;DHT22;27211;51.220;5.308;2022-08-21T09:13:12;30.30;92.90
41471;DHT22;27211;51.220;5.308;2022-08-21T09:16:04;30.20;93.10
41471;DHT22;27211;51.220;5.308;2022-08-21T09:18:38;30.40;92.80
41471;DHT22;27211;51.220;5.308;2022-08-21T09:21:28;30.00;92.80
41471;DHT22;27211;51.220;5.308;2022-08-21T09:27:04;29.00;92.80
41471;DHT22;27211;51.220;5.308;2022-08-21T09:29:35;28.90;93.60
41471;DHT22;27211;51.220;5.308;2022-08-21T09:32:09;28.90;92.60
41471;DHT22;27211;51.220;5.308;2022-08-21T09:34:37;28.70;92.90
41471;DHT22;27211;51.220;5.308;2022-08-21T09:37:03;29.40;92.80
41471;DHT22;27211;51.220;5.308;2022-08-21T09:39:32;29.60;92.60
41471;DHT22;27211;51.220;5.308;2022-08-21T09:42:08;29.80;91.60
41471;DHT22;27211;51.220;5.308;2022-08-21T09:44:37;30.10;91.50
41471;DHT22;27211;51.220;5.308;2022-08-21T09:47:06;30.60;90.90
41471;DHT22;27211;51.220;5.308;2022-08-21T09:49:36;30.90;90.40
41471;DHT22;27211;51.220;5.308;2022-08-21T09:52:13;31.30;89.70
41471;DHT22;27211;51.220;5.308;2022-08-21T09:54:41;31.00;85.80
41471;DHT22;27211;51.220;5.308;2022-08-21T09:59:55;31.60;85.70
41471;DHT22;27211;51.220;5.308;2022-08-21T10:05:06;32.80;82.70
41471;DHT22;27211;51.220;5.308;2022-08-21T10:07:37;32.50;83.40
41471;DHT22;27211;51.220;5.308;2022-08-21T10:10:13;32.10;81.70
41471;DHT22;27211;51.220;5.308;2022-08-21T10:18:18;30.90;84.30
41471;DHT22;27211;51.220;5.308;2022-08-21T10:21:13;31.60;83.60
41471;DHT22;27211;51.220;5.308;2022-08-21T10:24:09;32.20;82.70
41471;DHT22;27211;51.220;5.308;2022-08-21T10:27:19;32.10;81.40
41471;DHT22;27211;51.220;5.308;2022-08-21T10:29:54;32.50;80.00
41471;DHT22;27211;51.220;5.308;2022-08-21T10:35:00;32.80;78.80
41471;DHT22;27211;51.220;5.308;2022-08-21T10:40:49;31.00;81.20
41471;DHT22;27211;51.220;5.308;2022-08-21T10:49:13;31.70;80.10
41471;DHT22;27211;51.220;5.308;2022-08-21T10:52:09;32.90;78.40
41471;DHT22;27211;51.220;5.308;2022-08-21T11:00:06;33.90;76.10
41471;DHT22;27211;51.220;5.308;2022-08-21T11:02:45;34.50;74.00
41471;DHT22;27211;51.220;5.308;2022-08-21T11:05:15;34.00;73.10
41471;DHT22;27211;51.220;5.308;2022-08-21T11:07:53;33.30;73.70
41471;DHT22;27211;51.220;5.308;2022-08-21T11:10:57;32.90;73.20
41471;DHT22;27211;51.220;5.308;2022-08-21T11:13:44;32.20;74.70
41471;DHT22;27211;51.220;5.308;2022-08-21T11:16:19;32.00;75.40
41471;DHT22;27211;51.220;5.308;2022-08-21T11:18:57;32.20;76.80
41471;DHT22;27211;51.220;5.308;2022-08-21T11:21:35;32.40;75.10
41471;DHT22;27211;51.220;5.308;2022-08-21T11:27:13;31.60;76.10
41471;DHT22;27211;51.220;5.308;2022-08-21T11:29:44;31.00;76.90
41471;DHT22;27211;51.220;5.308;2022-08-21T11:40:57;30.80;78.40
41471;DHT22;27211;51.220;5.308;2022-08-21T11:46:24;34.70;71.90
41471;DHT22;27211;51.220;5.308;2022-08-21T11:52:16;35.70;68.70
41471;DHT22;27211;51.220;5.308;2022-08-21T11:54:52;34.60;68.50
41471;DHT22;27211;51.220;5.308;2022-08-21T11:57:43;33.30;69.60
41471;DHT22;27211;51.220;5.308;2022-08-21T12:00:34;33.10;70.40
41471;DHT22;27211;51.220;5.308;2022-08-21T12:03:28;33.90;69.10
41471;DHT22;27211;51.220;5.308;2022-08-21T12:06:02;34.30;67.00
41471;DHT22;27211;51.220;5.308;2022-08-21T12:08:35;34.90;65.00
41471;DHT22;27211;51.220;5.308;2022-08-21T12:14:11;35.90;64.40
41471;DHT22;27211;51.220;5.308;2022-08-21T12:16:40;37.10;63.30
41471;DHT22;27211;51.220;5.308;2022-08-21T12:19:09;37.00;62.60
41471;DHT22;27211;51.220;5.308;2022-08-21T12:24:50;35.30;63.40
41471;DHT22;27211;51.220;5.308;2022-08-21T12:27:40;35.00;62.80
41471;DHT22;27211;51.220;5.308;2022-08-21T12:32:59;33.70;65.00
41471;DHT22;27211;51.220;5.308;2022-08-21T12:35:37;33.40;64.60
41471;DHT22;27211;51.220;5.308;2022-08-21T12:38:20;33.80;64.70
41471;DHT22;27211;51.220;5.308;2022-08-21T12:41:06;34.80;62.20
41471;DHT22;27211;51.220;5.308;2022-08-21T12:43:42;34.70;62.10
41471;DHT22;27211;51.220;5.308;2022-08-21T12:46:21;34.10;63.00
41471;DHT22;27211;51.220;5.308;2022-08-21T12:49:03;34.10;63.60
41471;DHT22;27211;51.220;5.308;2022-08-21T12:51:55;34.50;63.50
41471;DHT22;27211;51.220;5.308;2022-08-21T12:54:30;34.50;63.40
41471;DHT22;27211;51.220;5.308;2022-08-21T12:57:04;35.70;61.30
41471;DHT22;27211;51.220;5.308;2022-08-21T12:59:31;37.10;59.50
41471;DHT22;27211;51.220;5.308;2022-08-21T13:02:07;37.30;59.00
41471;DHT22;27211;51.220;5.308;2022-08-21T13:04:40;36.00;59.30
41471;DHT22;27211;51.220;5.308;2022-08-21T13:07:09;36.30;59.50
41471;DHT22;27211;51.220;5.308;2022-08-21T13:09:44;37.40;58.40
41471;DHT22;27211;51.220;5.308;2022-08-21T13:12:20;37.40;57.70
41471;DHT22;27211;51.220;5.308;2022-08-21T13:14:47;36.60;57.90
41471;DHT22;27211;51.220;5.308;2022-08-21T13:17:17;35.30;58.90
41471;DHT22;27211;51.220;5.308;2022-08-21T13:19:53;33.90;60.40
41471;DHT22;27211;51.220;5.308;2022-08-21T13:22:19;33.50;62.20
41471;DHT22;27211;51.220;5.308;2022-08-21T13:24:47;33.90;61.70
41471;DHT22;27211;51.220;5.308;2022-08-21T13:27:28;34.90;60.40
41471;DHT22;27211;51.220;5.308;2022-08-21T13:30:21;36.40;58.60
41471;DHT22;27211;51.220;5.308;2022-08-21T13:32:54;35.90;58.50
41471;DHT22;27211;51.220;5.308;2022-08-21T13:35:28;35.30;59.00
41471;DHT22;27211;51.220;5.308;2022-08-21T13:37:56;35.60;58.90
41471;DHT22;27211;51.220;5.308;2022-08-21T13:40:41;36.80;58.50
41471;DHT22;27211;51.220;5.308;2022-08-21T13:43:13;37.10;56.60
41471;DHT22;27211;51.220;5.308;2022-08-21T13:45:44;36.70;56.70
41471;DHT22;27211;51.220;5.308;2022-08-21T13:48:12;36.30;55.20
41471;DHT22;27211;51.220;5.308;2022-08-21T13:50:39;35.90;56.10
41471;DHT22;27211;51.220;5.308;2022-08-21T13:53:18;36.40;55.90
41471;DHT22;27211;51.220;5.308;2022-08-21T13:55:45;36.00;56.00
41471;DHT22;27211;51.220;5.308;2022-08-21T13:58:11;35.50;56.20
41471;DHT22;27211;51.220;5.308;2022-08-21T14:00:46;35.30;57.10
41471;DHT22;27211;51.220;5.308;2022-08-21T14:03:26;35.40;57.10
41471;DHT22;27211;51.220;5.308;2022-08-21T14:05:53;36.00;56.50
41471;DHT22;27211;51.220;5.308;2022-08-21T14:10:59;34.10;57.50
41471;DHT22;27211;51.220;5.308;2022-08-21T14:13:35;34.60;57.20
41471;DHT22;27211;51.220;5.308;2022-08-21T14:21:33;34.70;56.60
41471;DHT22;27211;51.220;5.308;2022-08-21T14:24:27;34.40;57.70
41471;DHT22;27211;51.220;5.308;2022-08-21T14:29:36;33.20;58.30
41471;DHT22;27211;51.220;5.308;2022-08-21T14:32:13;32.20;59.00
41471;DHT22;27211;51.220;5.308;2022-08-21T14:34:40;31.60;60.50
41471;DHT22;27211;51.220;5.308;2022-08-21T14:37:06;31.30;61.30
41471;DHT22;27211;51.220;5.308;2022-08-21T14:39:32;30.80;62.90
41471;DHT22;27211;51.220;5.308;2022-08-21T14:41:59;30.40;63.90
41471;DHT22;27211;51.220;5.308;2022-08-21T14:44:26;30.20;64.90
41471;DHT22;27211;51.220;5.308;2022-08-21T14:46:52;30.50;64.40
41471;DHT22;27211;51.220;5.308;2022-08-21T14:49:18;30.60;63.20
41471;DHT22;27211;51.220;5.308;2022-08-21T14:51:44;31.00;63.50
41471;DHT22;27211;51.220;5.308;2022-08-21T14:54:10;31.50;62.90
41471;DHT22;27211;51.220;5.308;2022-08-21T14:56:37;31.40;63.30
41471;DHT22;27211;51.220;5.308;2022-08-21T14:59:06;31.40;62.90
41471;DHT22;27211;51.220;5.308;2022-08-21T15:01:34;31.80;63.30
41471;DHT22;27211;51.220;5.308;2022-08-21T15:04:01;32.20;62.90
41471;DHT22;27211;51.220;5.308;2022-08-21T15:06:28;32.30;63.40
41471;DHT22;27211;51.220;5.308;2022-08-21T15:08:54;32.00;62.00
41471;DHT22;27211;51.220;5.308;2022-08-21T15:11:21;31.60;62.70
41471;DHT22;27211;51.220;5.308;2022-08-21T15:13:53;30.90;63.50
41471;DHT22;27211;51.220;5.308;2022-08-21T15:16:20;30.80;63.70
41471;DHT22;27211;51.220;5.308;2022-08-21T15:18:47;30.40;64.40
41471;DHT22;27211;51.220;5.308;2022-08-21T15:21:13;30.10;64.80
41471;DHT22;27211;51.220;5.308;2022-08-21T15:23:39;29.80;65.30
41471;DHT22;27211;51.220;5.308;2022-08-21T15:26:05;29.80;65.80
41471;DHT22;27211;51.220;5.308;2022-08-21T15:28:31;29.90;65.40
41471;DHT22;27211;51.220;5.308;2022-08-21T15:31:02;29.90;66.40
41471;DHT22;27211;51.220;5.308;2022-08-21T15:33:28;30.30;65.50
41471;DHT22;27211;51.220;5.308;2022-08-21T15:35:54;30.30;64.90
41471;DHT22;27211;51.220;5.308;2022-08-21T15:38:20;30.70;65.50
41471;DHT22;27211;51.220;5.308;2022-08-21T15:40:46;30.90;65.50
41471;DHT22;27211;51.220;5.308;2022-08-21T15:45:49;29.70;67.10
41471;DHT22;27211;51.220;5.308;2022-08-21T15:48:15;29.40;67.70
41471;DHT22;27211;51.220;5.308;2022-08-21T15:50:41;29.40;68.10
41471;DHT22;27211;51.220;5.308;2022-08-21T15:53:10;29.30;68.10
41471;DHT22;27211;51.220;5.308;2022-08-21T15:55:36;29.20;68.30
41471;DHT22;27211;51.220;5.308;2022-08-21T15:58:03;29.30;68.40
41471;DHT22;27211;51.220;5.308;2022-08-21T16:00:31;29.40;68.10
41471;DHT22;27211;51.220;5.308;2022-08-21T16:02:58;29.30;68.10
41471;DHT22;27211;51.220;5.308;2022-08-21T16:05:25;29.00;68.60
41471;DHT22;27211;51.220;5.308;2022-08-21T16:07:54;28.70;69.50
41471;DHT22;27211;51.220;5.308;2022-08-21T16:10:23;28.60;70.10
41471;DHT22;27211;51.220;5.308;2022-08-21T16:12:56;28.60;70.90
41471;DHT22;27211;51.220;5.308;2022-08-21T16:15:27;28.80;71.20
41471;DHT22;27211;51.220;5.308;2022-08-21T16:17:54;28.40;70.90
41471;DHT22;27211;51.220;5.308;2022-08-21T16:20:26;28.10;71.20
41471;DHT22;27211;51.220;5.308;2022-08-21T16:22:53;28.10;71.90
41471;DHT22;27211;51.220;5.308;2022-08-21T16:25:20;28.30;72.30
41471;DHT22;27211;51.220;5.308;2022-08-21T16:27:52;27.90;72.60
41471;DHT22;27211;51.220;5.308;2022-08-21T16:30:20;27.80;73.40
41471;DHT22;27211;51.220;5.308;2022-08-21T16:32:46;27.70;73.50
41471;DHT22;27211;51.220;5.308;2022-08-21T16:35:18;27.70;73.60
41471;DHT22;27211;51.220;5.308;2022-08-21T16:37:45;27.60;73.60
41471;DHT22;27211;51.220;5.308;2022-08-21T16:40:20;27.40;73.90
41471;DHT22;27211;51.220;5.308;2022-08-21T16:43:12;27.50;74.40
41471;DHT22;27211;51.220;5.308;2022-08-21T16:46:35;27.60;74.60
41471;DHT22;27211;51.220;5.308;2022-08-21T16:49:17;27.60;75.60
41471;DHT22;27211;51.220;5.308;2022-08-21T16:51:43;27.20;77.30
41471;DHT22;27211;51.220;5.308;2022-08-21T16:54:12;26.90;78.90
41471;DHT22;27211;51.220;5.308;2022-08-21T16:59:23;27.00;79.80
41471;DHT22;27211;51.220;5.308;2022-08-21T17:01:50;26.90;79.90
41471;DHT22;27211;51.220;5.308;2022-08-21T17:04:26;27.00;79.70
41471;DHT22;27211;51.220;5.308;2022-08-21T17:07:31;27.20;79.40
41471;DHT22;27211;51.220;5.308;2022-08-21T17:09:59;27.10;80.10
41471;DHT22;27211;51.220;5.308;2022-08-21T17:12:36;26.80;80.80
41471;DHT22;27211;51.220;5.308;2022-08-21T17:15:19;26.90;81.30
41471;DHT22;27211;51.220;5.308;2022-08-21T17:17:58;26.80;81.00
41471;DHT22;27211;51.220;5.308;2022-08-21T17:23:51;26.60;82.00
41471;DHT22;27211;51.220;5.308;2022-08-21T17:26:29;26.70;81.40
41471;DHT22;27211;51.220;5.308;2022-08-21T17:29:03;26.50;82.50
41471;DHT22;27211;51.220;5.308;2022-08-21T17:31:50;26.60;82.50
41471;DHT22;27211;51.220;5.308;2022-08-21T17:37:26;26.90;81.50
41471;DHT22;27211;51.220;5.308;2022-08-21T17:40:00;26.50;83.30
41471;DHT22;27211;51.220;5.308;2022-08-21T17:42:46;26.50;83.70
41471;DHT22;27211;51.220;5.308;2022-08-21T17:45:17;26.10;84.90
41471;DHT22;27211;51.220;5.308;2022-08-21T17:47:47;25.90;86.10
41471;DHT22;27211;51.220;5.308;2022-08-21T17:53:24;26.20;85.90
41471;DHT22;27211;51.220;5.308;2022-08-21T17:55:50;25.80;86.00
41471;DHT22;27211;51.220;5.308;2022-08-21T17:58:30;25.70;87.10
41471;DHT22;27211;51.220;5.308;2022-08-21T18:00:58;25.70;87.30
41471;DHT22;27211;51.220;5.308;2022-08-21T18:06:22;25.70;88.30
41471;DHT22;27211;51.220;5.308;2022-08-21T18:11:33;25.50;89.20
41471;DHT22;27211;51.220;5.308;2022-08-21T18:14:15;25.30;90.30
41471;DHT22;27211;51.220;5.308;2022-08-21T18:16:44;25.30;91.00
41471;DHT22;27211;51.220;5.308;2022-08-21T18:19:37;25.20;91.20
41471;DHT22;27211;51.220;5.308;2022-08-21T18:25:20;25.10;91.70
41471;DHT22;27211;51.220;5.308;2022-08-21T18:28:02;25.10;92.30
41471;DHT22;27211;51.220;5.308;2022-08-21T18:37:36;24.80;93.50
41471;DHT22;27211;51.220;5.308;2022-08-21T18:40:08;24.60;94.30
41471;DHT22;27211;51.220;5.308;2022-08-21T18:42:45;24.50;94.40
41471;DHT22;27211;51.220;5.308;2022-08-21T18:45:17;24.50;94.90
41471;DHT22;27211;51.220;5.308;2022-08-21T18:47:57;24.20;95.70
41471;DHT22;27211;51.220;5.308;2022-08-21T18:53:39;24.10;97.10
41471;DHT22;27211;51.220;5.308;2022-08-21T18:56:30;24.00;97.10
41471;DHT22;27211;51.220;5.308;2022-08-21T19:05:55;23.50;99.30
41471;DHT22;27211;51.220;5.308;2022-08-21T19:08:23;23.40;99.50
41471;DHT22;27211;51.220;5.308;2022-08-21T19:10:50;23.30;99.70
41471;DHT22;27211;51.220;5.308;2022-08-21T19:13:18;23.30;99.90
41471;DHT22;27211;51.220;5.308;2022-08-21T19:15:46;23.20;99.90
41471;DHT22;27211;51.220;5.308;2022-08-21T19:18:15;23.30;99.90
41471;DHT22;27211;51.220;5.308;2022-08-21T19:20:42;23.10;99.90
41471;DHT22;27211;51.220;5.308;2022-08-21T19:23:11;23.00;99.90
41471;DHT22;27211;51.220;5.308;2022-08-21T19:25:40;23.10;99.90
41471;DHT22;27211;51.220;5.308;2022-08-21T19:28:09;23.00;99.90
41471;DHT22;27211;51.220;5.308;2022-08-21T19:30:37;23.00;99.90
41471;DHT22;27211;51.220;5.308;2022-08-21T19:33:03;22.90;99.90
41471;DHT22;27211;51.220;5.308;2022-08-21T19:35:29;22.90;99.90
41471;DHT22;27211;51.220;5.308;2022-08-21T19:37:55;22.80;99.90
41471;DHT22;27211;51.220;5.308;2022-08-21T19:40:21;22.70;99.90
41471;DHT22;27211;51.220;5.308;2022-08-21T19:42:47;22.80;99.90
41471;DHT22;27211;51.220;5.308;2022-08-21T19:45:13;22.70;99.90
41471;DHT22;27211;51.220;5.308;2022-08-21T19:47:44;22.60;99.90
41471;DHT22;27211;51.220;5.308;2022-08-21T19:50:10;22.50;99.90
41471;DHT22;27211;51.220;5.308;2022-08-21T19:52:36;22.50;99.90
41471;DHT22;27211;51.220;5.308;2022-08-21T19:55:04;22.40;99.90
41471;DHT22;27211;51.220;5.308;2022-08-21T19:57:30;22.50;99.90
41471;DHT22;27211;51.220;5.308;2022-08-21T19:59:56;22.40;99.90
41471;DHT22;27211;51.220;5.308;2022-08-21T20:02:22;22.20;99.90
41471;DHT22;27211;51.220;5.308;2022-08-21T20:04:48;22.20;99.90
41471;DHT22;27211;51.220;5.308;2022-08-21T20:07:14;22.20;99.90
41471;DHT22;27211;51.220;5.308;2022-08-21T20:09:41;22.20;99.90
41471;DHT22;27211;51.220;5.308;2022-08-21T20:12:08;22.20;99.90
41471;DHT22;27211;51.220;5.308;2022-08-21T20:14:42;22.10;99.90
41471;DHT22;27211;51.220;5.308;2022-08-21T20:17:10;22.10;99.90
41471;DHT22;27211;51.220;5.308;2022-08-21T20:19:38;22.00;99.90
41471;DHT22;27211;51.220;5.308;2022-08-21T20:22:05;21.90;99.90
41471;DHT22;27211;51.220;5.308;2022-08-21T20:24:31;21.90;99.90
41471;DHT22;27211;51.220;5.308;2022-08-21T20:26:58;21.70;99.90
41471;DHT22;27211;51.220;5.308;2022-08-21T20:29:28;21.90;99.90
41471;DHT22;27211;51.220;5.308;2022-08-21T20:31:56;21.90;99.90
41471;DHT22;27211;51.220;5.308;2022-08-21T20:34:22;21.70;99.90
41471;DHT22;27211;51.220;5.308;2022-08-21T20:36:48;21.70;99.90
41471;DHT22;27211;51.220;5.308;2022-08-21T20:39:16;21.60;99.90
41471;DHT22;27211;51.220;5.308;2022-08-21T20:41:42;21.70;99.90
41471;DHT22;27211;51.220;5.308;2022-08-21T20:44:11;21.60;99.90
41471;DHT22;27211;51.220;5.308;2022-08-21T20:46:37;21.70;99.90
41471;DHT22;27211;51.220;5.308;2022-08-21T20:49:04;21.60;99.90
41471;DHT22;27211;51.220;5.308;2022-08-21T20:51:43;21.50;99.90
41471;DHT22;27211;51.220;5.308;2022-08-21T20:54:26;21.40;99.90
41471;DHT22;27211;51.220;5.308;2022-08-21T20:57:15;21.40;99.90
41471;DHT22;27211;51.220;5.308;2022-08-21T21:00:03;21.40;99.90
41471;DHT22;27211;51.220;5.308;2022-08-21T21:02:42;21.40;99.90
41471;DHT22;27211;51.220;5.308;2022-08-21T21:05:17;21.30;99.90
41471;DHT22;27211;51.220;5.308;2022-08-21T21:13:46;21.30;99.90
41471;DHT22;27211;51.220;5.308;2022-08-21T21:16:25;21.20;99.90
41471;DHT22;27211;51.220;5.308;2022-08-21T21:18:59;21.20;99.90
41471;DHT22;27211;51.220;5.308;2022-08-21T21:21:36;21.30;99.90
41471;DHT22;27211;51.220;5.308;2022-08-21T21:26:55;21.40;99.90
41471;DHT22;27211;51.220;5.308;2022-08-21T21:29:37;21.40;99.90
41471;DHT22;27211;51.220;5.308;2022-08-21T21:32:05;21.40;99.90
41471;DHT22;27211;51.220;5.308;2022-08-21T21:34:36;21.30;99.90
41471;DHT22;27211;51.220;5.308;2022-08-21T21:37:31;21.20;99.90
41471;DHT22;27211;51.220;5.308;2022-08-21T21:40:34;21.00;99.90
41471;DHT22;27211;51.220;5.308;2022-08-21T21:55:19;20.70;99.90
41471;DHT22;27211;51.220;5.308;2022-08-21T21:58:01;20.60;99.90
41471;DHT22;27211;51.220;5.308;2022-08-21T22:00:30;20.60;99.90
41471;DHT22;27211;51.220;5.308;2022-08-21T22:03:08;20.50;99.90
41471;DHT22;27211;51.220;5.308;2022-08-21T22:11:10;20.40;99.90
41471;DHT22;27211;51.220;5.308;2022-08-21T22:13:47;20.30;99.90
41471;DHT22;27211;51.220;5.308;2022-08-21T22:16:16;20.10;99.90
41471;DHT22;27211;51.220;5.308;2022-08-21T22:18:50;20.00;99.90
41471;DHT22;27211;51.220;5.308;2022-08-21T22:21:32;20.20;99.90
41471;DHT22;27211;51.220;5.308;2022-08-21T22:24:08;20.20;99.90
41471;DHT22;27211;51.220;5.308;2022-08-21T22:26:39;20.20;99.90
41471;DHT22;27211;51.220;5.308;2022-08-21T22:29:10;20.00;99.90
41471;DHT22;27211;51.220;5.308;2022-08-21T22:31:37;20.10;99.90
41471;DHT22;27211;51.220;5.308;2022-08-21T22:34:11;20.10;99.90
41471;DHT22;27211;51.220;5.308;2022-08-21T22:36:42;20.00;99.90
41471;DHT22;27211;51.220;5.308;2022-08-21T22:39:25;19.90;99.90
41471;DHT22;27211;51.220;5.308;2022-08-21T22:41:51;19.90;99.90
41471;DHT22;27211;51.220;5.308;2022-08-21T22:44:21;19.90;99.90
41471;DHT22;27211;51.220;5.308;2022-08-21T22:46:57;19.80;99.90
41471;DHT22;27211;51.220;5.308;2022-08-21T22:49:38;19.80;99.90
41471;DHT22;27211;51.220;5.308;2022-08-21T22:52:24;19.80;99.90
41471;DHT22;27211;51.220;5.308;2022-08-21T22:54:53;19.90;99.90
41471;DHT22;27211;51.220;5.308;2022-08-21T22:57:29;19.80;99.90
41471;DHT22;27211;51.220;5.308;2022-08-21T23:00:13;19.70;99.90
41471;DHT22;27211;51.220;5.308;2022-08-21T23:05:33;19.60;99.90
41471;DHT22;27211;51.220;5.308;2022-08-21T23:10:45;19.50;99.90
41471;DHT22;27211;51.220;5.308;2022-08-21T23:13:13;19.50;99.90
41471;DHT22;27211;51.220;5.308;2022-08-21T23:27:33;19.80;99.90
41471;DHT22;27211;51.220;5.308;2022-08-21T23:30:17;19.70;99.90
41471;DHT22;27211;51.220;5.308;2022-08-21T23:33:07;19.70;99.90
41471;DHT22;27211;51.220;5.308;2022-08-21T23:35:51;19.70;99.90
41471;DHT22;27211;51.220;5.308;2022-08-21T23:38:52;19.60;99.90
41471;DHT22;27211;51.220;5.308;2022-08-21T23:41:46;19.40;99.90
41471;DHT22;27211;51.220;5.308;2022-08-21T23:49:59;19.30;99.90
41471;DHT22;27211;51.220;5.308;2022-08-21T23:52:42;19.40;99.90
